Terminal Aerodrome Forecast
Issued by NWS Cleveland, OH

Home | Current Version | Previous Version | Graphics & Text | Print | Product List | Glossary On
Versions: 1 2 3 4 5 6 7 8 9 10 11 12 13
000
FTUS41 KCLE 181726
TAFMFD
TAF
KMFD 181726Z 1818/1918 26012G18KT P6SM SCT035 BKN060
     FM182300 27009KT P6SM FEW030 SCT110
     FM190600 27005KT 6SM BR FEW040 SCT200
     FM190800 26005KT 5SM BR SCT040 BKN200
     FM191200 20004KT 4SM BR BKN050
     FM191400 24008KT P6SM VCSH BKN050=

USA.gov is the U.S. government's official web portal to all federal, state and local government web resources and services.